KPHF/PHF METAR and TAF weather

Enter ICAO airport designator
Station Type Date Time Source
KPHF METAR 2021/03/02 16:54 UTC NOAA

KPHF 021654Z 32010KT 10SM CLR 06/M09 A3031 RMK AO2 SLP264 T00561094


Station Type Date Time Source
KPHF Decoded METAR 2021/03/02 16:54 UTC NOAA

WILLIAMSBURG INTERNATIONAL AIRPORT , VA, United States (KPHF) 37-08N 76-30W 12M
Mar 02, 2021 - 11:54 AM EST / 2021.03.02 1654 UTC
Wind: from the NW (320 degrees) at 12 MPH (10 KT):0
Visibility: 10 mile(s):0
Sky conditions: clear
Temperature: 42.1 F (5.6 C)
Dew Point: 15.1 F (-9.4 C)
Relative Humidity: 33%
Pressure (altimeter): 30.31 in. Hg (1026 hPa)
ob: KPHF 021654Z 32010KT 10SM CLR 06/M09 A3031 RMK AO2 SLP264 T00561094
cycle: 17

Station Type Date Time Source
KPHF TAF 2021/03/02 18:22 UTC NOAA

TAF KPHF 021720Z 0218/0318 33008KT P6SM SCT250
FM022100 VRB04KT P6SM SCT250
FM030000 11004KT P6SM SKC
FM030300 17004KT P6SM SKC
FM030700 20005KT P6SM SCT250
FM031600 23007KT P6SM SCT250

Example: see airport list